29TE weather

Public forecast

Using degrees Fahrenheit for public forecast. Weather courtesy of forecast.io.

Closest aviation weather report (METAR) to Pearland Heliport

Closest report is Pearland Regional Airport, 3.0 nm (5.6 km) SE. Retrieved 2020/08/13 10:53 UTC (48 minutes ago):

KLVJ 131053Z AUTO 00000KT 9SM CLR 26/23 A2997 RMK AO2 SLP149 T02610233

Closest aviation forecast (TAF) to Pearland Heliport

Closest forecast is William P Hobby Airport, 5.2 nm (9.7 km) N. Retrieved 2020/08/13 06:22 UTC (5 hours ago):

TAF KHOU 130520Z 1306/1406 20009KT P6SM FEW050 SCT250 FM131500 22007KT P6SM SCT025 FM131800 15006KT P6SM FEW050 FM140100 18009KT P6SM BKN250